Time;durP1;ratioP1;P1;durP2;ratioP2;P2;SDS_P1;SDS_P2;PMS_P1;PMS_P2;Temp;Humidity;BMP_temperature;BMP_pressure;BME280_temperature;BME280_humidity;BME280_pressure;Samples;Min_cycle;Max_cycle;Signal;HPM_P1;HPM_P2
2024/03/12 00:01:08;;;;;;;;;;;;;;;-6.37;100.00;101616.55;109473;1252;67050;-52
2024/03/12 00:03:42;;;;;;;;;;;;;;;-6.34;100.00;101619.51;109486;1251;71520;-53
2024/03/12 00:06:11;;;;;;;;;;;;;;;-6.34;100.00;101616.63;109454;1251;58910;-52
2024/03/12 00:08:42;;;;;;;;;;;;;;;-6.38;100.00;101615.75;109478;1251;59902;-53
2024/03/12 00:11:10;;;;;;;;;;;;;;;-6.45;100.00;101614.56;109490;1256;73753;-53
2024/03/12 00:13:37;;;;;;;;;;;;;;;-6.48;100.00;101610.92;109541;1251;65823;-53
2024/03/12 00:16:05;;;;;;;;;;;;;;;-6.53;100.00;101609.56;109453;1251;71443;-53
2024/03/12 00:18:33;;;;;;;;;;;;;;;-6.59;100.00;101612.58;109440;1254;60471;-54
2024/03/12 00:21:01;;;;;;;;;;;;;;;-6.66;100.00;101613.94;109521;1253;58847;-52
2024/03/12 00:23:31;;;;;;;;;;;;;;;-6.72;100.00;101613.92;109516;1251;74726;-53
2024/03/12 00:25:59;;;;;;;;;;;;;;;-6.77;100.00;101614.72;109451;1254;65794;-59
2024/03/12 00:28:26;;;;;;;;;;;;;;;-6.82;100.00;101614.53;109524;1251;72282;-52
2024/03/12 00:30:54;;;;;;;;;;;;;;;-6.86;100.00;101611.40;109475;1254;60998;-52
2024/03/12 00:33:22;;;;;;;;;;;;;;;-6.88;100.00;101607.06;109518;1251;59400;-53
2024/03/12 00:35:51;;;;;;;;;;;;;;;-6.90;100.00;101606.77;109468;1251;74727;-59
2024/03/12 00:38:19;;;;;;;;;;;;;;;-6.88;100.00;101602.86;109481;1255;66474;-53
2024/03/12 00:40:48;;;;;;;;;;;;;;;-6.87;100.00;101597.06;109485;1251;71570;-54
2024/03/12 00:43:17;;;;;;;;;;;;;;;-6.85;100.00;101600.23;109474;1251;59636;-53
2024/03/12 00:45:46;;;;;;;;;;;;;;;-6.84;100.00;101602.23;109453;1254;59093;-54
2024/03/12 00:48:13;;;;;;;;;;;;;;;-6.87;100.00;101604.83;109402;1251;74712;-54
2024/03/12 00:50:42;;;;;;;;;;;;;;;-6.86;100.00;101601.95;109519;1251;65908;-54
2024/03/12 00:53:11;;;;;;;;;;;;;;;-6.84;100.00;101597.67;109521;1251;71079;-53
2024/03/12 00:55:40;;;;;;;;;;;;;;;-6.83;100.00;101594.42;109466;1253;59681;-53
2024/03/12 00:58:12;;;;;;;;;;;;;;;-6.79;100.00;101590.80;109439;1252;58957;-59
2024/03/12 01:00:40;;;;;;;;;;;;;;;-6.79;100.00;101591.12;109484;1254;74209;-53
2024/03/12 01:03:08;;;;;;;;;;;;;;;-6.78;100.00;101588.21;109519;1251;66836;-54
2024/03/12 01:05:37;;;;;;;;;;;;;;;-6.77;100.00;101589.05;109499;1253;71429;-53
2024/03/12 01:08:07;;;;;;;;;;;;;;;-6.75;100.00;101591.52;109488;1256;59647;-59
2024/03/12 01:10:35;;;;;;;;;;;;;;;-6.70;100.00;101586.00;109511;1251;59006;-53
2024/03/12 01:13:05;;;;;;;;;;;;;;;-6.66;100.00;101580.31;109540;1251;74794;-55
2024/03/12 01:15:34;;;;;;;;;;;;;;;-6.63;100.00;101578.71;109453;1251;65644;-54
2024/03/12 01:18:03;;;;;;;;;;;;;;;-6.62;100.00;101582.05;109468;1254;72842;-54
2024/03/12 01:20:34;;;;;;;;;;;;;;;-6.59;100.00;101582.48;109430;1254;59726;-53
2024/03/12 01:23:04;;;;;;;;;;;;;;;-6.59;100.00;101582.98;109509;1251;60157;-53
2024/03/12 01:25:36;;;;;;;;;;;;;;;-6.60;100.00;101583.70;109469;1251;74646;-53
2024/03/12 01:28:05;;;;;;;;;;;;;;;-6.58;100.00;101581.96;109416;1251;66351;-53
2024/03/12 01:30:36;;;;;;;;;;;;;;;-6.57;100.00;101578.70;109489;1251;71449;-53
2024/03/12 01:33:05;;;;;;;;;;;;;;;-6.57;100.00;101573.98;109483;1251;59138;-53
2024/03/12 01:35:37;;;;;;;;;;;;;;;-6.59;100.00;101578.94;109484;1251;59330;-54
2024/03/12 01:38:08;;;;;;;;;;;;;;;-6.59;100.00;101579.10;109494;1251;73651;-53
2024/03/12 01:40:38;;;;;;;;;;;;;;;-6.61;100.00;101578.45;109506;1251;65526;-53
2024/03/12 01:43:06;;;;;;;;;;;;;;;-6.61;100.00;101581.67;109429;1254;71363;-53
2024/03/12 01:45:35;;;;;;;;;;;;;;;-6.64;100.00;101584.14;109471;1254;60826;-55
2024/03/12 01:48:06;;;;;;;;;;;;;;;-6.70;100.00;101583.12;109510;1251;59670;-53
2024/03/12 01:50:36;;;;;;;;;;;;;;;-6.75;100.00;101577.51;109299;1251;208630;-54
2024/03/12 01:53:07;;;;;;;;;;;;;;;-6.78;100.00;101577.23;109475;1254;67005;-53
2024/03/12 01:55:37;;;;;;;;;;;;;;;-6.79;100.00;101581.31;109427;1251;71370;-53
2024/03/12 01:58:06;;;;;;;;;;;;;;;-6.84;100.00;101579.94;109456;1254;59616;-53
2024/03/12 02:00:34;;;;;;;;;;;;;;;-6.88;100.00;101580.53;109460;1254;58980;-54
2024/03/12 02:03:02;;;;;;;;;;;;;;;-6.93;100.00;101588.11;109501;1251;73448;-54
2024/03/12 02:05:29;;;;;;;;;;;;;;;-7.02;100.00;101591.88;109473;1251;67740;-53
2024/03/12 02:07:57;;;;;;;;;;;;;;;-7.10;100.00;101589.69;109437;1254;72695;-53
2024/03/12 02:10:27;;;;;;;;;;;;;;;-7.18;100.00;101591.75;109338;1254;60960;-54
2024/03/12 02:12:55;;;;;;;;;;;;;;;-7.30;100.00;101595.92;109458;1251;59041;-53
2024/03/12 02:15:23;;;;;;;;;;;;;;;-7.42;100.00;101592.66;109336;1254;75091;-54
2024/03/12 02:17:54;;;;;;;;;;;;;;;-7.54;100.00;101588.89;109474;1255;67166;-55
2024/03/12 02:20:22;;;;;;;;;;;;;;;-7.63;100.00;101584.70;109446;1251;72658;-53
2024/03/12 02:22:53;;;;;;;;;;;;;;;-7.72;100.00;101582.18;109490;1251;61403;-53
2024/03/12 02:25:20;;;;;;;;;;;;;;;-7.77;100.00;101582.47;109517;1251;59335;-57
2024/03/12 02:27:48;;;;;;;;;;;;;;;-7.77;100.00;101584.16;109428;1252;74717;-53
2024/03/12 02:30:16;;;;;;;;;;;;;;;-7.73;100.00;101586.26;109482;1251;64511;-53
2024/03/12 02:32:46;;;;;;;;;;;;;;;-7.68;100.00;101581.25;109491;1251;71376;-53
2024/03/12 02:35:15;;;;;;;;;;;;;;;-7.60;100.00;101584.30;109474;1251;60918;-53
2024/03/12 02:37:43;;;;;;;;;;;;;;;-7.56;100.00;101583.18;109410;1251;59463;-54
2024/03/12 02:40:14;;;;;;;;;;;;;;;-7.57;100.00;101579.34;109488;1253;73360;-53
2024/03/12 02:42:43;;;;;;;;;;;;;;;-7.58;100.00;101583.40;109471;1251;65629;-53
2024/03/12 02:45:14;;;;;;;;;;;;;;;-7.59;100.00;101583.58;109470;1252;71419;-53
2024/03/12 02:47:47;;;;;;;;;;;;;;;-7.59;100.00;101584.27;109434;1251;59572;-53
2024/03/12 02:50:15;;;;;;;;;;;;;;;-7.62;100.00;101587.36;109505;1251;59994;-53
2024/03/12 02:52:44;;;;;;;;;;;;;;;-7.66;100.00;101582.73;109490;1251;73421;-55
2024/03/12 02:55:13;;;;;;;;;;;;;;;-7.69;100.00;101585.51;109484;1251;66016;-53
2024/03/12 02:57:41;;;;;;;;;;;;;;;-7.69;100.00;101590.56;109451;1251;71861;-53
2024/03/12 03:00:12;;;;;;;;;;;;;;;-7.71;100.00;101593.30;109421;1254;59571;-54
2024/03/12 03:02:42;;;;;;;;;;;;;;;-7.72;100.00;101595.69;109520;1253;59758;-53
2024/03/12 03:05:09;;;;;;;;;;;;;;;-7.70;100.00;101594.98;109509;1251;73542;-53
2024/03/12 03:07:40;;;;;;;;;;;;;;;-7.70;100.00;101588.04;109416;1251;65322;-54
2024/03/12 03:10:08;;;;;;;;;;;;;;;-7.70;100.00;101583.65;109537;1251;72771;-53
2024/03/12 03:12:36;;;;;;;;;;;;;;;-7.73;100.00;101586.09;109483;1254;61364;-53
2024/03/12 03:15:03;;;;;;;;;;;;;;;-7.76;100.00;101587.01;109464;1251;59115;-53
2024/03/12 03:17:31;;;;;;;;;;;;;;;-7.76;100.00;101587.86;109488;1251;73771;-57
2024/03/12 03:19:58;;;;;;;;;;;;;;;-7.76;100.00;101584.98;109479;1251;66975;-54
2024/03/12 03:22:26;;;;;;;;;;;;;;;-7.80;100.00;101580.02;109439;1253;70467;-54
2024/03/12 03:24:53;;;;;;;;;;;;;;;-7.85;100.00;101580.10;109487;1251;60957;-53
2024/03/12 03:27:21;;;;;;;;;;;;;;;-7.87;100.00;101584.22;109468;1251;59844;-54
2024/03/12 03:29:48;;;;;;;;;;;;;;;-7.93;100.00;101590.41;109436;1251;73455;-57
2024/03/12 03:32:16;;;;;;;;;;;;;;;-7.99;100.00;101586.14;109520;1251;66189;-55
2024/03/12 03:34:43;;;;;;;;;;;;;;;-8.05;100.00;101586.45;109441;1251;71825;-53
2024/03/12 03:37:11;;;;;;;;;;;;;;;-8.11;100.00;101591.45;109457;1251;60928;-54
2024/03/12 03:39:39;;;;;;;;;;;;;;;-8.17;100.00;101585.67;109532;1251;58915;-53
2024/03/12 03:42:07;;;;;;;;;;;;;;;-8.22;100.00;101587.13;109465;1251;74665;-55
2024/03/12 03:44:34;;;;;;;;;;;;;;;-8.23;100.00;101590.51;109522;1253;66128;-54
2024/03/12 03:47:02;;;;;;;;;;;;;;;-8.20;100.00;101597.20;109428;1251;71570;-53
2024/03/12 03:49:30;;;;;;;;;;;;;;;-8.19;100.00;101594.48;109472;1251;60910;-53
2024/03/12 03:51:57;;;;;;;;;;;;;;;-8.17;100.00;101593.43;109484;1251;58933;-53
2024/03/12 03:54:25;;;;;;;;;;;;;;;-8.12;100.00;101590.29;109407;1251;74291;-53
2024/03/12 03:56:52;;;;;;;;;;;;;;;-8.04;100.00;101593.84;109496;1251;67271;-54
2024/03/12 03:59:21;;;;;;;;;;;;;;;-7.92;100.00;101598.33;109494;1251;72785;-54
2024/03/12 04:01:49;;;;;;;;;;;;;;;-7.76;100.00;101595.97;109443;1251;59648;-53
2024/03/12 04:04:18;;;;;;;;;;;;;;;-7.56;100.00;101590.27;109420;1251;58962;-58
2024/03/12 04:06:47;;;;;;;;;;;;;;;-7.21;100.00;101592.50;109522;1251;74761;-54
2024/03/12 04:09:20;;;;;;;;;;;;;;;-6.71;100.00;101591.40;109493;1250;66494;-55
2024/03/12 04:11:50;;;;;;;;;;;;;;;-6.12;100.00;101589.27;109503;1251;72718;-56
2024/03/12 04:14:18;;;;;;;;;;;;;;;-5.48;100.00;101588.73;109495;1251;59813;-55
2024/03/12 04:16:45;;;;;;;;;;;;;;;-4.79;100.00;101585.95;109463;1251;59359;-56
2024/03/12 04:19:13;;;;;;;;;;;;;;;-4.05;100.00;101582.51;109550;1251;74699;-53
2024/03/12 04:21:43;;;;;;;;;;;;;;;-3.36;100.00;101583.42;109529;1251;65628;-53
2024/03/12 04:24:13;;;;;;;;;;;;;;;-2.80;100.00;101579.45;109391;1254;72899;-59
2024/03/12 04:26:44;;;;;;;;;;;;;;;-2.36;100.00;101578.02;109480;1251;59272;-54
2024/03/12 04:29:12;;;;;;;;;;;;;;;-1.91;100.00;101577.90;109526;1251;59875;-53
2024/03/12 04:31:40;;;;;;;;;;;;;;;-1.39;100.00;101569.48;109530;1251;73744;-53
2024/03/12 04:34:08;;;;;;;;;;;;;;;-0.76;100.00;101566.02;109431;1253;65814;-55
2024/03/12 04:36:36;;;;;;;;;;;;;;;-0.17;100.00;101560.08;109468;1251;71420;-54
2024/03/12 04:41:50;;;;;;;;;;;;;;;0.72;100.00;101558.09;109484;1251;60455;-54
2024/03/12 04:44:18;;;;;;;;;;;;;;;1.09;100.00;101553.04;109481;1251;73425;-54
2024/03/12 04:46:45;;;;;;;;;;;;;;;1.54;100.00;101551.04;109520;1251;65621;-55
2024/03/12 04:49:13;;;;;;;;;;;;;;;1.87;100.00;101548.15;109515;1251;70964;-54
2024/03/12 04:51:40;;;;;;;;;;;;;;;2.21;100.00;101548.29;109477;1251;58953;-55
2024/03/12 04:54:09;;;;;;;;;;;;;;;2.55;100.00;101543.16;109536;1250;59070;-54
2024/03/12 04:56:37;;;;;;;;;;;;;;;2.78;98.17;101543.89;109543;1251;73533;-53
2024/03/12 04:59:04;;;;;;;;;;;;;;;2.90;89.51;101548.08;109527;1250;67361;-54
2024/03/12 05:01:32;;;;;;;;;;;;;;;2.95;81.03;101550.63;109530;1251;72702;-60
2024/03/12 05:03:59;;;;;;;;;;;;;;;2.76;73.30;101549.52;109488;1250;58968;-54
2024/03/12 05:06:39;;;;;;;;;;;;;;;2.12;69.27;101553.11;109538;1251;59870;-53
2024/03/12 05:09:07;;;;;;;;;;;;;;;1.51;69.70;101555.84;109560;1250;74791;-55
2024/03/12 05:11:38;;;;;;;;;;;;;;;0.90;70.55;101562.69;109499;1251;66299;-54
2024/03/12 05:14:07;;;;;;;;;;;;;;;0.35;73.32;101557.95;109487;1251;72736;-54
2024/03/12 05:16:34;;;;;;;;;;;;;;;-0.11;77.24;101561.09;109496;1251;60328;-53
2024/03/12 05:19:02;;;;;;;;;;;;;;;-0.42;82.82;101562.74;109506;1251;59849;-59
2024/03/12 05:21:29;;;;;;;;;;;;;;;-0.65;87.64;101562.91;109451;1251;73908;-54
2024/03/12 05:23:58;;;;;;;;;;;;;;;-0.81;92.82;101562.33;109564;1250;67413;-54
2024/03/12 05:26:26;;;;;;;;;;;;;;;-0.90;97.84;101562.98;109506;1251;71352;-53
2024/03/12 05:28:54;;;;;;;;;;;;;;;-0.92;100.00;101566.00;109497;1251;60161;-54
2024/03/12 05:31:29;;;;;;;;;;;;;;;-1.05;100.00;101571.07;109488;1251;59850;-54
2024/03/12 05:34:00;;;;;;;;;;;;;;;-1.16;100.00;101577.61;109517;1250;74687;-54
2024/03/12 05:36:40;;;;;;;;;;;;;;;-1.22;100.00;101573.59;109626;1250;66991;-54
2024/03/12 05:39:18;;;;;;;;;;;;;;;-1.21;100.00;101570.84;109424;1252;71486;-55
2024/03/12 05:48:06;;;;;;;;;;;;;;;-1.14;100.00;101570.70;109554;1253;58874;-54
2024/03/12 05:50:10;;;;;;;;;;;;;;;-0.86;100.00;101572.55;109487;1250;65532;-56
2024/03/12 05:52:38;;;;;;;;;;;;;;;-0.72;100.00;101568.90;109426;1250;72045;-55
2024/03/12 05:55:05;;;;;;;;;;;;;;;-0.49;100.00;101565.69;109500;1251;59606;-54
2024/03/12 05:57:33;;;;;;;;;;;;;;;-0.19;100.00;101564.45;109498;1251;59872;-54
2024/03/12 06:00:01;;;;;;;;;;;;;;;-0.01;100.00;101564.85;109559;1250;75387;-55
2024/03/12 06:02:38;;;;;;;;;;;;;;;0.20;100.00;101560.47;109469;1251;67111;-55
2024/03/12 06:05:06;;;;;;;;;;;;;;;0.45;100.00;101562.67;109507;1251;71448;-55
2024/03/12 06:07:35;;;;;;;;;;;;;;;0.61;100.00;101559.20;109523;1250;58934;-55
2024/03/12 06:10:03;;;;;;;;;;;;;;;0.89;100.00;101561.02;109564;1251;59420;-55
2024/03/12 06:12:31;;;;;;;;;;;;;;;1.25;100.00;101552.58;109477;1251;77026;-59
2024/03/12 06:14:59;;;;;;;;;;;;;;;1.69;100.00;101549.13;109527;1250;67037;-55
2024/03/12 06:17:26;;;;;;;;;;;;;;;2.26;100.00;101545.88;109521;1251;72610;-55
2024/03/12 06:19:54;;;;;;;;;;;;;;;2.98;96.07;101536.17;109513;1250;59320;-54
2024/03/12 06:22:21;;;;;;;;;;;;;;;3.68;87.82;101534.13;109499;1251;58972;-58
2024/03/12 06:24:49;;;;;;;;;;;;;;;4.39;81.36;101535.31;109443;1251;75139;-55
2024/03/12 06:27:18;;;;;;;;;;;;;;;5.28;75.55;101532.61;109581;1250;67040;-56
2024/03/12 06:29:52;;;;;;;;;;;;;;;6.14;66.96;101523.00;109521;1251;72729;-55
2024/03/12 06:32:20;;;;;;;;;;;;;;;6.85;61.71;101516.68;109461;1250;60172;-60
2024/03/12 06:34:48;;;;;;;;;;;;;;;7.57;57.33;101510.63;109478;1251;59005;-55
2024/03/12 06:37:16;;;;;;;;;;;;;;;8.00;53.80;101500.60;109579;1250;74663;-55
2024/03/12 06:39:44;;;;;;;;;;;;;;;8.58;52.29;101498.65;109561;1250;65651;-55
2024/03/12 06:42:12;;;;;;;;;;;;;;;9.30;49.78;101495.05;109463;1252;71498;-55
2024/03/12 06:44:42;;;;;;;;;;;;;;;9.72;47.09;101494.63;109548;1251;59266;-55
2024/03/12 06:47:10;;;;;;;;;;;;;;;10.10;45.69;101491.29;109510;1251;58906;-55
2024/03/12 06:49:38;;;;;;;;;;;;;;;10.60;44.15;101490.42;109505;1251;73760;-55
2024/03/12 06:52:06;;;;;;;;;;;;;;;11.11;42.72;101483.83;109480;1250;66917;-55
2024/03/12 06:54:35;;;;;;;;;;;;;;;11.53;40.85;101482.74;109467;1251;71985;-55
2024/03/12 06:57:07;;;;;;;;;;;;;;;11.49;39.64;101481.55;109476;1251;60085;-55
2024/03/12 06:59:35;;;;;;;;;;;;;;;11.61;39.12;101476.86;109496;1251;58951;-55
2024/03/12 07:02:05;;;;;;;;;;;;;;;11.54;37.81;101477.16;109431;1251;75153;-56
2024/03/12 07:04:43;;;;;;;;;;;;;;;11.37;37.75;101471.77;109492;1251;66920;-55
2024/03/12 07:07:13;;;;;;;;;;;;;;;11.49;37.64;101472.33;109512;1251;75230;-54
2024/03/12 07:09:41;;;;;;;;;;;;;;;11.41;36.86;101468.98;109468;1254;60167;-55
2024/03/12 07:12:08;;;;;;;;;;;;;;;11.03;36.87;101469.23;109484;1251;59880;-55
2024/03/12 07:14:45;;;;;;;;;;;;;;;10.81;37.31;101470.06;109576;1250;74847;-56
2024/03/12 07:17:14;;;;;;;;;;;;;;;11.25;37.76;101474.46;109601;1250;69854;-55
2024/03/12 07:19:43;;;;;;;;;;;;;;;11.85;36.80;101473.92;109474;1251;73644;-59
2024/03/12 07:22:10;;;;;;;;;;;;;;;12.06;36.07;101471.89;109444;1251;62234;-55
2024/03/12 07:24:39;;;;;;;;;;;;;;;12.18;35.67;101477.06;109533;1251;60082;-55
2024/03/12 07:27:09;;;;;;;;;;;;;;;12.28;34.83;101475.33;109530;1251;74698;-55
2024/03/12 07:29:37;;;;;;;;;;;;;;;12.41;34.28;101472.73;109526;1251;68796;-55
2024/03/12 07:32:05;;;;;;;;;;;;;;;12.41;33.87;101471.55;109517;1251;73537;-55
2024/03/12 07:34:32;;;;;;;;;;;;;;;12.38;33.65;101475.48;109507;1251;58996;-56
2024/03/12 07:37:00;;;;;;;;;;;;;;;12.44;32.98;101472.44;109520;1251;60816;-56
2024/03/12 07:39:37;;;;;;;;;;;;;;;12.21;32.63;101473.95;109469;1253;76984;-55
2024/03/12 07:42:09;;;;;;;;;;;;;;;12.10;33.51;101467.13;109495;1251;66286;-57
2024/03/12 07:44:41;;;;;;;;;;;;;;;12.47;33.19;101470.34;109543;1251;74829;-56
2024/03/12 07:47:09;;;;;;;;;;;;;;;12.45;32.70;101471.29;109467;1251;60134;-56
2024/03/12 07:49:37;;;;;;;;;;;;;;;12.14;32.61;101467.45;109526;1251;61915;-55
2024/03/12 07:52:05;;;;;;;;;;;;;;;11.79;33.07;101463.78;109529;1251;75663;-54
2024/03/12 07:54:34;;;;;;;;;;;;;;;11.54;33.18;101458.20;109536;1250;66879;-54
2024/03/12 07:57:02;;;;;;;;;;;;;;;11.30;33.27;101466.10;109490;1250;74786;-54
2024/03/12 07:59:30;;;;;;;;;;;;;;;11.16;33.65;101464.94;109523;1251;58891;-55
2024/03/12 08:01:58;;;;;;;;;;;;;;;11.22;33.46;101460.52;109483;1251;62009;-54
2024/03/12 08:04:26;;;;;;;;;;;;;;;11.37;33.44;101453.16;109498;1250;77042;-55
2024/03/12 08:06:54;;;;;;;;;;;;;;;11.48;33.43;101450.84;109532;1250;68999;-54
2024/03/12 08:09:22;;;;;;;;;;;;;;;11.44;33.11;101454.23;109544;1251;74826;-54
2024/03/12 08:11:51;;;;;;;;;;;;;;;11.32;33.24;101452.73;109463;1251;62333;-59
2024/03/12 08:14:19;;;;;;;;;;;;;;;11.21;33.13;101449.25;109515;1250;61902;-55
2024/03/12 08:16:49;;;;;;;;;;;;;;;11.23;33.53;101447.67;109525;1250;76804;-56
2024/03/12 08:19:17;;;;;;;;;;;;;;;11.55;33.27;101449.04;109548;1251;68480;-55
2024/03/12 08:21:45;;;;;;;;;;;;;;;11.73;32.48;101444.98;109397;1252;74944;-57
2024/03/12 08:24:12;;;;;;;;;;;;;;;11.48;31.76;101446.63;109497;1251;62157;-56
2024/03/12 08:26:40;;;;;;;;;;;;;;;10.91;31.97;101451.48;109505;1251;62542;-56
2024/03/12 08:29:07;;;;;;;;;;;;;;;10.54;32.57;101457.11;109546;1251;76102;-56
2024/03/12 08:31:38;;;;;;;;;;;;;;;10.33;33.16;101448.95;109543;1250;69140;-56
2024/03/12 08:34:17;;;;;;;;;;;;;;;10.55;33.68;101449.20;109445;1252;74766;-55
2024/03/12 08:36:48;;;;;;;;;;;;;;;10.94;33.29;101445.77;109520;1251;61533;-57
2024/03/12 08:39:16;;;;;;;;;;;;;;;11.23;32.85;101438.31;109509;1251;60697;-57
2024/03/12 08:41:44;;;;;;;;;;;;;;;11.29;32.87;101433.80;109497;1251;76016;-55
2024/03/12 08:44:14;;;;;;;;;;;;;;;11.28;32.69;101430.62;109533;1251;68995;-56
2024/03/12 08:46:41;;;;;;;;;;;;;;;11.04;32.57;101434.13;109500;1251;75494;-55
2024/03/12 08:49:10;;;;;;;;;;;;;;;10.84;33.00;101429.23;109506;1251;60874;-54
2024/03/12 08:51:39;;;;;;;;;;;;;;;10.82;32.97;101428.55;109488;1251;63647;-55
2024/03/12 08:54:08;;;;;;;;;;;;;;;10.63;33.43;101426.20;109508;1250;75621;-54
2024/03/12 08:56:36;;;;;;;;;;;;;;;10.67;33.49;101424.53;109458;1250;69332;-55
2024/03/12 08:59:08;;;;;;;;;;;;;;;10.72;33.58;101415.14;109488;1251;75809;-54
2024/03/12 09:01:36;;;;;;;;;;;;;;;10.91;33.48;101414.77;109415;1251;63487;-57
2024/03/12 09:04:07;;;;;;;;;;;;;;;11.08;32.89;101412.91;109509;1251;62867;-55
2024/03/12 09:06:35;;;;;;;;;;;;;;;10.94;32.61;101412.57;109475;1251;74824;-58
2024/03/12 09:09:02;;;;;;;;;;;;;;;10.50;32.73;101410.61;109531;1251;70742;-54
2024/03/12 09:11:30;;;;;;;;;;;;;;;10.22;33.11;101411.05;109445;1250;74886;-59
2024/03/12 09:13:59;;;;;;;;;;;;;;;10.24;33.25;101410.17;109429;1251;60797;-54
2024/03/12 09:16:27;;;;;;;;;;;;;;;10.36;33.53;101403.81;109520;1250;61781;-54
2024/03/12 09:18:54;;;;;;;;;;;;;;;10.82;33.26;101401.03;109598;1250;77101;-54
2024/03/12 09:21:22;;;;;;;;;;;;;;;11.01;32.55;101396.61;109493;1251;68880;-57
2024/03/12 09:23:50;;;;;;;;;;;;;;;11.27;32.50;101388.98;109539;1250;76136;-54
2024/03/12 09:26:28;;;;;;;;;;;;;;;11.45;31.58;101381.85;109584;1250;62472;-54
2024/03/12 09:28:57;;;;;;;;;;;;;;;11.06;31.43;101376.59;109569;1250;60853;-54
2024/03/12 09:31:25;;;;;;;;;;;;;;;10.58;31.76;101377.30;109547;1250;76796;-58
2024/03/12 09:33:54;;;;;;;;;;;;;;;10.37;32.27;101372.39;109586;1251;69184;-54
2024/03/12 09:36:21;;;;;;;;;;;;;;;10.41;32.13;101371.70;109501;1251;74768;-55
2024/03/12 09:38:50;;;;;;;;;;;;;;;10.17;32.26;101368.00;109528;1250;62155;-54
2024/03/12 09:41:22;;;;;;;;;;;;;;;10.06;32.58;101369.44;109510;1250;60709;-54
2024/03/12 09:43:51;;;;;;;;;;;;;;;10.08;32.52;101365.10;109521;1250;77159;-56
2024/03/12 09:46:19;;;;;;;;;;;;;;;10.13;32.18;101371.88;109536;1251;68751;-54
2024/03/12 09:48:47;;;;;;;;;;;;;;;10.09;31.65;101358.89;109520;1251;76218;-55
2024/03/12 09:51:15;;;;;;;;;;;;;;;9.90;31.51;101356.77;109514;1250;61383;-55
2024/03/12 09:53:46;;;;;;;;;;;;;;;9.69;31.53;101348.27;109557;1251;60910;-56
2024/03/12 09:56:16;;;;;;;;;;;;;;;9.63;31.89;101341.20;109533;1250;77647;-56
2024/03/12 09:58:44;;;;;;;;;;;;;;;9.64;31.78;101342.14;109561;1251;67914;-55
2024/03/12 10:01:12;;;;;;;;;;;;;;;9.66;31.61;101341.98;109538;1250;74676;-57
2024/03/12 10:03:40;;;;;;;;;;;;;;;9.65;31.24;101340.88;109562;1250;61773;-55
2024/03/12 10:06:09;;;;;;;;;;;;;;;9.48;31.46;101331.43;109584;1250;61164;-57
2024/03/12 10:08:37;;;;;;;;;;;;;;;9.62;31.69;101326.79;109580;1250;75740;-56
2024/03/12 10:11:07;;;;;;;;;;;;;;;9.74;31.36;101330.80;109420;1250;68772;-57
2024/03/12 10:13:38;;;;;;;;;;;;;;;9.63;31.15;101323.75;109567;1251;74844;-56
2024/03/12 10:16:07;;;;;;;;;;;;;;;9.53;31.45;101314.27;109490;1250;62018;-55
2024/03/12 10:18:37;;;;;;;;;;;;;;;9.81;31.73;101309.59;109538;1251;61887;-55
2024/03/12 10:21:06;;;;;;;;;;;;;;;10.26;31.05;101300.19;109526;1254;75630;-56
2024/03/12 10:23:36;;;;;;;;;;;;;;;10.61;30.45;101297.06;109497;1251;70483;-56
2024/03/12 10:26:40;;;;;;;;;;;;;;;10.63;30.34;101301.73;109519;1250;75054;-56
2024/03/12 10:29:07;;;;;;;;;;;;;;;10.68;30.53;101302.55;109442;1251;61473;-55
2024/03/12 10:31:39;;;;;;;;;;;;;;;11.10;30.67;101300.98;109544;1251;61961;-55
2024/03/12 10:34:09;;;;;;;;;;;;;;;11.46;29.48;101299.46;109501;1251;75752;-55
2024/03/12 10:36:42;;;;;;;;;;;;;;;11.32;29.06;101292.77;109497;1251;67940;-56
2024/03/12 10:39:12;;;;;;;;;;;;;;;11.07;29.05;101286.52;109483;1250;74663;-55
2024/03/12 10:41:43;;;;;;;;;;;;;;;10.72;28.93;101288.59;109543;1250;60102;-55
2024/03/12 10:44:10;;;;;;;;;;;;;;;10.30;29.36;101285.88;109556;1251;62086;-55
2024/03/12 10:46:43;;;;;;;;;;;;;;;10.30;30.26;101279.45;109540;1250;75564;-55
2024/03/12 10:49:12;;;;;;;;;;;;;;;10.78;30.12;101273.05;109547;1250;68894;-55
2024/03/12 10:51:44;;;;;;;;;;;;;;;11.09;29.17;101276.21;109536;1250;74728;-55
2024/03/12 10:54:13;;;;;;;;;;;;;;;10.77;28.78;101277.33;109521;1250;61632;-56
2024/03/12 10:56:43;;;;;;;;;;;;;;;10.41;29.25;101268.70;109538;1251;62962;-55
2024/03/12 10:59:11;;;;;;;;;;;;;;;10.34;29.64;101263.86;109527;1250;75182;-55
2024/03/12 11:01:39;;;;;;;;;;;;;;;10.42;30.08;101259.64;109582;1250;70618;-56
2024/03/12 11:04:10;;;;;;;;;;;;;;;10.77;29.84;101255.55;109485;1251;74081;-55
2024/03/12 11:06:38;;;;;;;;;;;;;;;11.14;29.81;101252.51;109514;1251;61599;-56
2024/03/12 11:09:11;;;;;;;;;;;;;;;11.40;29.07;101251.69;109541;1251;61378;-56
2024/03/12 11:11:39;;;;;;;;;;;;;;;11.37;28.40;101246.94;109514;1250;75512;-56
2024/03/12 11:14:07;;;;;;;;;;;;;;;11.02;28.40;101245.13;109547;1251;68255;-56
2024/03/12 11:16:35;;;;;;;;;;;;;;;10.79;28.32;101246.02;109507;1251;75298;-54
2024/03/12 11:19:23;;;;;;;;;;;;;;;10.65;28.78;101235.46;109510;1250;62443;-55
2024/03/12 11:21:51;;;;;;;;;;;;;;;10.64;28.75;101235.00;109565;1251;60855;-55
2024/03/12 11:24:32;;;;;;;;;;;;;;;10.52;28.51;101237.49;109487;1251;76996;-55
2024/03/12 11:27:04;;;;;;;;;;;;;;;10.28;28.74;101237.52;109541;1250;69257;-55
2024/03/12 11:29:50;;;;;;;;;;;;;;;10.14;29.18;101233.51;109532;1250;74822;-55
2024/03/12 11:32:18;;;;;;;;;;;;;;;10.25;29.52;101229.44;109490;1251;60264;-55
2024/03/12 11:34:45;;;;;;;;;;;;;;;10.37;28.93;101229.44;109539;1251;60363;-55
2024/03/12 11:37:14;;;;;;;;;;;;;;;10.27;28.90;101230.42;109549;1250;75735;-56
2024/03/12 11:39:42;;;;;;;;;;;;;;;10.18;28.82;101232.02;109509;1251;69323;-55
2024/03/12 11:42:10;;;;;;;;;;;;;;;10.07;29.21;101225.88;109526;1251;75822;-56
2024/03/12 11:44:42;;;;;;;;;;;;;;;10.10;29.28;101223.69;109543;1251;62773;-56
2024/03/12 11:47:24;;;;;;;;;;;;;;;10.19;29.17;101225.05;109481;1250;62200;-55
2024/03/12 11:49:52;;;;;;;;;;;;;;;10.18;28.80;101222.20;109484;1251;76942;-56
2024/03/12 11:52:23;;;;;;;;;;;;;;;10.08;28.89;101226.17;109568;1250;69678;-55
2024/03/12 11:54:52;;;;;;;;;;;;;;;9.95;28.90;101223.41;109551;1251;73679;-54
2024/03/12 11:57:21;;;;;;;;;;;;;;;9.87;28.86;101218.30;109514;1251;60333;-60
2024/03/12 11:59:49;;;;;;;;;;;;;;;9.82;28.94;101218.40;109534;1254;60915;-55
2024/03/12 12:02:20;;;;;;;;;;;;;;;9.90;29.17;101211.12;109561;1250;74528;-54
2024/03/12 12:04:54;;;;;;;;;;;;;;;9.95;28.83;101205.71;109574;1251;69018;-55
2024/03/12 12:07:22;;;;;;;;;;;;;;;9.96;29.05;101205.45;109481;1250;75112;-55
2024/03/12 12:09:50;;;;;;;;;;;;;;;10.00;28.92;101209.38;109533;1251;60732;-55
2024/03/12 12:12:18;;;;;;;;;;;;;;;9.99;28.73;101202.55;109531;1251;60968;-56
2024/03/12 12:14:47;;;;;;;;;;;;;;;10.01;28.58;101199.91;109471;1251;77644;-55
2024/03/12 12:17:22;;;;;;;;;;;;;;;9.94;28.41;101198.54;109438;1251;68330;-55
2024/03/12 12:20:04;;;;;;;;;;;;;;;9.79;28.48;101193.78;109520;1250;74977;-56
2024/03/12 12:22:34;;;;;;;;;;;;;;;9.66;28.58;101196.57;109517;1250;61631;-57
2024/03/12 12:25:02;;;;;;;;;;;;;;;9.54;28.71;101196.40;109524;1251;61374;-58
2024/03/12 12:27:32;;;;;;;;;;;;;;;9.48;29.08;101193.77;109547;1251;77986;-55
2024/03/12 12:30:00;;;;;;;;;;;;;;;9.57;28.72;101189.84;109479;1251;68882;-57
2024/03/12 12:32:31;;;;;;;;;;;;;;;9.46;28.56;101191.08;109555;1251;74859;-56
2024/03/12 12:34:58;;;;;;;;;;;;;;;9.34;28.61;101195.25;109531;1251;61347;-62
2024/03/12 12:37:26;;;;;;;;;;;;;;;9.19;28.64;101194.27;109540;1254;60713;-56
2024/03/12 12:39:58;;;;;;;;;;;;;;;9.12;28.82;101194.63;109500;1251;76832;-56
2024/03/12 12:42:26;;;;;;;;;;;;;;;9.05;29.08;101194.11;109544;1250;67881;-56
2024/03/12 12:44:53;;;;;;;;;;;;;;;9.10;29.30;101188.05;109531;1251;74782;-57